East Dereham, United Kingdom
Current Conditions -  °F | °C
As of 10:50 AM on Thursday 23 Oct 2014 (Local Time) from EGSH Reporting Station
Broken Clouds Broken Clouds  
Wind Chill: 54°   Ceiling: 3500
Heat Index: 54°   Visibility: 6mi
Dew Point: 50°   Wind: 8mph
Humidity: 88%   Direction: 210°SSW
Pressure: 30.09"   Gusts: NA
Location:  52.68°N, 0.93°E
Report Text: EGSH 230950Z 21007KT 170V250 9999 BKN035 12/10 Q1019 NOSIG
Loading
Personal Weather Stations






























Interactive Weather Map
Tropical Storm Tracking
New forecast layout! Learn more

10-Day Weather Forecast

Advertisements
Track Severe Weather on mobile